Eden Prairie, MN

5:05 PM CDT on August 23, 2016 (GMT -0500)
Flying Cloud | | Change Station
Active Advisory: Flood Warning

Elev 906 ft 44.83 °N, 93.46 °W | Updated 12 minutes ago

Clear
Clear
81 °F
Feels Like 83 °F
N
22
Wind Variable Wind from South
Gusts 32 mph

Today
High -- | Low -- °F
--% Chance of Precip.
Yesterday
High -- | Low -- °F
Precip. -- in
Pressure 29.88 in
Visibility 10.0 miles
Clouds Clear
Heat Index 83 °F
Dew Point 66 °F
Humidity 60%
Rainfall 0.00 in
Snow Depth Not available.
6:26 AM 8:05 PM
Waning Gibbous, 64% visible
METAR KFCM 232153Z 17019G28KT 10SM CLR 27/19 A2989 RMK AO2 PK WND 19028/2151 SLP117 T02720189
Pressure 29.88 in
Visibility 10.0 miles
Clouds Clear
Heat Index 83 °F
Dew Point 66 °F
Humidity 60%
Rainfall 0.00 in
Snow Depth Not available.
6:26 AM 8:05 PM
Waning Gibbous, 64% visible
METAR KFCM 232153Z 17019G28KT 10SM CLR 27/19 A2989 RMK AO2 PK WND 19028/2151 SLP117 T02720189

10-Day Weather Forecast

Almanac

Astronomy

Aug. 23, 2016 Rise Set
Actual Time
Civil Twilight
Nautical Twilight
Astronomical Twilight
Moon
Length of Visible Light
Length of Day
Tomorrow will be .
, % of the Moon is Illuminated

Today's Extremes

State Highs State Lows

Community

WunderPhotos

Upload Photos

1,934,476 photos uploaded!

WunderBlog® & News

Nearby

Air Quality

  Air Quality AQ Index Pollutant
Not available.

Snow Depth

Station Depth Elevation

Earthquake Activity

City Distance Mag. Time & Date
Minimum magnitude displayed is 2.5.

Coastal Water Temperatures

Place Temperature

Stations

Nearby Weather Stations

Station Location Temp. Windchill Dew Point Humidity Wind Precip. Elev Updated Type
                   

Watches & Warnings

Flood Warning
Issued: 9:03 AM CDT Aug. 23, 2016 – National Weather Service

... Flood Warning now expected to end late Thursday night... the Flood
Warning continues for
the Crow River at Rockford.
* Until late Thursday night.
* At 8:45 am Tuesday the stage was 10.5 feet.
* Minor flooding is occurring and minor flooding is forecast.
* Flood stage is 10.0 feet.
* Forecast... the river will remain near 10.5 feet through this
afternoon. The river will fall below flood stage Thursday morning.
* Impact... at 10.0 feet... low lying areas and some roads along the
river begin to experience flooding.


Lat... Lon 4510 9380 4523 9367 4525 9357 4521 9353 4507 9370

Eta